Flight Track Log - Related Links

Times and Time Zones

All times are in EDT time to prevent confusion due to time zone crossing. See the SWA1435 flight status page for this flight to view local times or setup timezone preferences in your user account.

Time Position Orientation Groundspeed Altitude Reporting Facility
EDT Latitude Longitude Course Direction KTS MPH feet Rate Location/Type
Thu 07:09:09 AM 32.8833 -96.8833 25° Northeast 182 209 2,400  Level Dallas / Fort Worth TRACON
Thu 07:10:09 AM 32.9167 -96.9500 301° West 231 266 5,100 2,905 Climbing Dallas / Fort Worth TRACON
Thu 07:11:15 AM 32.9667 -97.0333 306° West 288 331 8,500 3,048 Climbing Dallas / Fort Worth TRACON
Thu 07:13:18 AM 33.1186 -96.9992 11° North 315 362 14,700 3,049 Climbing Fort Worth Center
Thu 07:14:00 AM 33.3420 -96.5804 25° Northeast  Level FlightAware Approximate
Thu 07:14:18 AM 33.2186 -96.9467 24° Northeast 342 394 17,800  Level Fort Worth Center
Thu 07:15:18 AM 33.3125 -96.8964 24° Northeast 354 407 20,400 2,200 Climbing Fort Worth Center
Thu 07:16:18 AM 33.4000 -96.8511 23° Northeast 373 429 22,200 1,950 Climbing Fort Worth Center
Thu 07:17:18 AM 33.4997 -96.7931 26° Northeast 386 444 24,300 1,850 Climbing Fort Worth Center
Thu 07:18:18 AM 33.6122 -96.7225 28° Northeast 398 458 25,900 1,600 Climbing Fort Worth Center
Thu 07:19:18 AM 33.7183 -96.6544 28° Northeast 417 480 27,500 1,500 Climbing Fort Worth Center
Thu 07:20:18 AM 33.8283 -96.5808 29° Northeast 429 494 28,900 1,300 Climbing Fort Worth Center
Thu 07:21:18 AM 33.9428 -96.5122 26° Northeast 446 513 30,100 1,550 Climbing Fort Worth Center
Thu 07:22:18 AM 34.0589 -96.4333 29° Northeast 466 536 32,000 1,950 Climbing Fort Worth Center
Thu 07:23:18 AM 34.1503 -96.3594 34° Northeast 455 524 34,000 1,450 Climbing Fort Worth Center
Thu 07:24:18 AM 34.2536 -96.2628 38° Northeast 455 524 34,900 1,350 Climbing Fort Worth Center
Thu 07:25:18 AM 34.3611 -96.1656 37° Northeast 469 540 36,700 1,050 Climbing Fort Worth Center
Thu 07:26:18 AM 34.4644 -96.0711 37° Northeast 474 545 37,000 150 Climbing Fort Worth Center
Thu 07:27:18 AM 34.5678 -95.9786 36° Northeast 469 540 37,000  Level Fort Worth Center
Thu 07:28:18 AM 34.6689 -95.8836 38° Northeast 464 534 37,000  Level Fort Worth Center
Thu 07:29:18 AM 34.7700 -95.7933 36° Northeast 459 528 37,000  Level Fort Worth Center
Thu 07:31:00 AM 34.9436 -95.6353 37° Northeast 452 520 37,000  Level Kansas City Center
Thu 07:31:33 AM 35.0083 -95.5822 34° Northeast 455 524 37,000  Level Memphis Center
Thu 07:32:33 AM 35.1128 -95.4844 37° Northeast 455 524 37,000  Level Memphis Center
Thu 07:33:33 AM 35.2189 -95.3869 37° Northeast 455 524 37,000  Level Memphis Center
Thu 07:34:33 AM 35.3208 -95.2911 37° Northeast 455 524 37,000  Level Memphis Center
Thu 07:35:33 AM 35.4267 -95.1931 37° Northeast 460 529 37,000  Level Memphis Center
Thu 07:36:33 AM 35.5308 -95.0919 38° Northeast 460 529 37,000  Level Memphis Center
Thu 07:37:33 AM 35.6386 -94.9958 36° Northeast 466 536 37,000  Level Memphis Center
Thu 07:38:33 AM 35.7444 -94.8944 38° Northeast 477 549 37,000  Level Memphis Center
Thu 07:39:33 AM 35.8483 -94.7925 38° Northeast 477 549 37,000  Level Memphis Center
Thu 07:40:33 AM 35.9561 -94.6933 37° Northeast 477 549 37,000  Level Memphis Center
Thu 07:41:33 AM 36.0617 -94.5908 38° Northeast 477 549 37,000  Level Memphis Center
Thu 07:43:11 AM 36.2244 -94.4358 38° Northeast 474 545 37,000  Level Kansas City Center
Thu 07:44:12 AM 36.3281 -94.3364 38° Northeast 473 544 37,000  Level Kansas City Center
Thu 07:45:13 AM 36.4325 -94.2364 38° Northeast 473 544 37,000  Level Kansas City Center
Thu 07:46:11 AM 36.5358 -94.1378 37° Northeast 471 542 37,000  Level Kansas City Center
Thu 07:47:13 AM 36.6372 -94.0392 38° Northeast 466 536 37,000  Level Kansas City Center
Thu 07:48:16 AM 36.7375 -93.9422 38° Northeast 460 529 37,000  Level Kansas City Center
Thu 07:49:14 AM 36.8375 -93.8456 38° Northeast 455 524 37,000  Level Kansas City Center
Thu 07:50:17 AM 36.9358 -93.7469 39° Northeast 452 520 37,000  Level Kansas City Center
Thu 07:51:17 AM 37.0339 -93.6511 38° Northeast 448 516 37,000  Level Kansas City Center
Thu 07:52:19 AM 37.1311 -93.5544 38° Northeast 446 513 37,000  Level Kansas City Center
Thu 07:53:20 AM 37.2297 -93.4581 38° Northeast 447 514 37,000  Level Kansas City Center
Thu 07:54:21 AM 37.3308 -93.3625 37° Northeast 452 520 37,000  Level Kansas City Center
Thu 07:55:20 AM 37.4383 -93.2206 46° Northeast 472 543 37,000  Level Kansas City Center
Thu 07:56:21 AM 37.5264 -93.0944 49° Northeast 477 549 37,000  Level Kansas City Center
Thu 07:57:22 AM 37.6147 -92.9664 49° Northeast 480 552 37,000  Level Kansas City Center
Thu 07:58:25 AM 37.7014 -92.8344 50° Northeast 484 557 37,000  Level Kansas City Center
Thu 07:59:26 AM 37.7900 -92.7019 50° Northeast 480 552 37,000  Level Kansas City Center
Thu 08:00:25 AM 37.8758 -92.5747 49° Northeast 476 548 37,000  Level Kansas City Center
Thu 08:01:27 AM 37.9606 -92.4467 50° Northeast 475 547 37,000  Level Kansas City Center
Thu 08:02:29 AM 38.0444 -92.3211 50° Northeast 472 543 37,000  Level Kansas City Center
Thu 08:03:30 AM 38.1283 -92.1950 50° Northeast 468 539 37,000 -1,388 Level Kansas City Center
Thu 08:04:30 AM 38.2214 -92.0536 50° Northeast 475 547 34,200 -3,000 Descending Kansas City Center
Thu 08:05:32 AM 38.3103 -91.9175 50° Northeast 493 567 30,900 -3,048 Descending Kansas City Center
Thu 08:06:34 AM 38.3958 -91.7800 52° Northeast 494 568 27,900 -2,803 Descending Kansas City Center
Thu 08:07:34 AM 38.4681 -91.6375 57° Northeast 481 554 25,200 -2,529 Descending Kansas City Center
Thu 08:08:35 AM 38.5364 -91.5050 57° Northeast 454 522 22,800 -2,331 Descending Kansas City Center
Thu 08:09:35 AM 38.6003 -91.3817 56° Northeast 424 488 20,500 -2,372 Descending Kansas City Center
Thu 08:10:01 AM 38.6331 -91.2686 70° East 396 456 19,400 -2,125 Descending FAA TRACON SMA TRACON (SMA)
Thu 08:10:23 AM 38.6514 -91.2336 56° Northeast 390 449 18,800 -1,756 Descending FAA TRACON SMA TRACON (SMA)
Thu 08:10:42 AM 38.6689 -91.1989 57° Northeast 381 438 18,200 -1,846 Descending FAA TRACON SMA TRACON (SMA)
Thu 08:11:02 AM 38.6875 -91.1533 62° Northeast 378 435 17,600 -2,250 Descending FAA TRACON SMA TRACON (SMA)
Thu 08:11:22 AM 38.6922 -91.1108 82° East 389 448 16,700 -2,250 Descending FAA TRACON SMA TRACON (SMA)
Thu 08:11:42 AM 38.6950 -91.0678 85° East 396 456 16,100 -2,308 Descending FAA TRACON SMA TRACON (SMA)
Thu 08:12:01 AM 38.6964 -91.0144 88° East 394 453 15,200 -2,341 Descending FAA TRACON SMA TRACON (SMA)
Thu 08:12:23 AM 38.6956 -90.9717 91° East 390 449 14,500 -1,902 Descending FAA TRACON SMA TRACON (SMA)
Thu 08:12:42 AM 38.6967 -90.9303 88° East 384 442 13,900 -2,308 Descending FAA TRACON SMA TRACON (SMA)
Thu 08:13:02 AM 38.6975 -90.8786 89° East 378 435 13,000 -2,250 Descending FAA TRACON SMA TRACON (SMA)
Thu 08:13:22 AM 38.6981 -90.8378 89° East 375 432 12,400 -2,000 Descending FAA TRACON SMA TRACON (SMA)
Thu 08:13:41 AM 38.6983 -90.7972 89° East 371 427 11,700 -2,250 Descending FAA TRACON SMA TRACON (SMA)
Thu 08:14:02 AM 38.7008 -90.7478 86° East 366 421 10,900 -1,902 Descending FAA TRACON SMA TRACON (SMA)
Thu 08:14:22 AM 38.7011 -90.7078 89° East 363 418 10,400 -1,050 Descending FAA TRACON SMA TRACON (SMA)
Thu 08:14:42 AM 38.7011 -90.6703 90° East 350 403 10,200 -615 Descending FAA TRACON SMA TRACON (SMA)
Thu 08:15:01 AM 38.7025 -90.6256 88° East 330 380 10,000 -900 Descending FAA TRACON SMA TRACON (SMA)
Thu 08:15:22 AM 38.7044 -90.5914 86° East 316 364 9,600 -1,171 Descending FAA TRACON SMA TRACON (SMA)
Thu 08:15:42 AM 38.7058 -90.5578 87° East 309 356 9,200 -1,500 Descending FAA TRACON SMA TRACON (SMA)
Thu 08:16:02 AM 38.7075 -90.5161 87° East 305 351 8,600 -1,692 Descending FAA TRACON SMA TRACON (SMA)
Thu 08:16:21 AM 38.7081 -90.4831 89° East 303 349 8,100 -1,200 Descending FAA TRACON SMA TRACON (SMA)
Thu 08:16:42 AM 38.6992 -90.4519 110° East 304 350 7,800 -878 Descending FAA TRACON SMA TRACON (SMA)
Thu 08:17:02 AM 38.6828 -90.4189 122° Southeast 290 334 7,500 -769 Descending FAA TRACON SMA TRACON (SMA)
Thu 08:17:21 AM 38.6700 -90.3933 123° Southeast 278 320 7,300 -900 Descending FAA TRACON SMA TRACON (SMA)
Thu 08:17:42 AM 38.6553 -90.3625 121° Southeast 266 306 6,900 -1,024 Descending FAA TRACON SMA TRACON (SMA)
Thu 08:18:02 AM 38.6436 -90.3383 122° Southeast 261 300 6,600 -1,050 Descending FAA TRACON SMA TRACON (SMA)
Thu 08:18:22 AM 38.6342 -90.3125 115° Southeast 262 302 6,200 -1,350 Descending FAA TRACON SMA TRACON (SMA)
Thu 08:18:42 AM 38.6294 -90.2772 100° East 262 302 5,700 -1,171 Descending FAA TRACON SMA TRACON (SMA)
Thu 08:19:03 AM 38.6258 -90.2494 99° East 259 298 5,400 -1,077 Descending FAA TRACON SMA TRACON (SMA)
Thu 08:19:21 AM 38.6225 -90.2217 99° East 258 297 5,000 -1,231 Descending FAA TRACON SMA TRACON (SMA)
Thu 08:19:42 AM 38.6181 -90.1881 100° East 251 289 4,600 -1,171 Descending FAA TRACON SMA TRACON (SMA)
Thu 08:20:02 AM 38.6167 -90.1611 94° East 249 287 4,200 -1,050 Descending FAA TRACON SMA TRACON (SMA)
Thu 08:20:22 AM 38.6286 -90.1461 44° Northeast 236 272 3,900 -1,385 Descending FAA TRACON SMA TRACON (SMA)
Thu 08:20:41 AM 38.6475 -90.1469 358° North 192 221 3,300 -1,500 Descending FAA TRACON SMA TRACON (SMA)
Thu 08:21:02 AM 38.6597 -90.1556 331° Northwest 168 193 2,900 -878 Descending FAA TRACON SMA TRACON (SMA)
Thu 08:21:22 AM 38.6706 -90.1653 325° Northwest 157 181 2,700 -600 Descending FAA TRACON SMA TRACON (SMA)
Thu 08:21:42 AM 38.6811 -90.1800 313° West 147 169 2,500 -750 Descending FAA TRACON SMA TRACON (SMA)
Thu 08:22:02 AM 38.6881 -90.1919 307° West 138 159 2,200 -600 Descending FAA TRACON SMA TRACON (SMA)
Thu 08:22:22 AM 38.6942 -90.2036 304° West 131 151 2,100 -615 Descending FAA TRACON SMA TRACON (SMA)
Thu 08:22:41 AM 38.7003 -90.2167 301° West 115 132 1,800 -600 Descending FAA TRACON SMA TRACON (SMA)
Thu 08:23:02 AM 38.7053 -90.2267 303° West 109 125 1,700 -439 Descending FAA TRACON SMA TRACON (SMA)
Thu 08:23:22 AM 38.7106 -90.2372 303° West 112 129 1,500 -600 Descending FAA TRACON SMA TRACON (SMA)
Thu 08:23:42 AM 38.7172 -90.2511 302° West 118 136 1,300 -750 Descending FAA TRACON SMA TRACON (SMA)
Thu 08:24:02 AM 38.7231 -90.2622 304° West 121 139 1,000 -732 Descending FAA TRACON SMA TRACON (SMA)
Thu 08:24:23 AM 38.7303 -90.2769 302° West 127 146 800 -571 Descending FAA TRACON SMA TRACON (SMA)

Login

Don't have an account? Register now (free) for customized features, flight alerts, and more!